Time;durP1;ratioP1;P1;durP2;ratioP2;P2;SDS_P1;SDS_P2;PMS_P1;PMS_P2;Temp;Humidity;BMP_temperature;BMP_pressure;BME280_temperature;BME280_humidity;BME280_pressure;Samples;Min_cycle;Max_cycle;Signal;HPM_P1;HPM_P2
2023/08/20 00:01:56;;;;;;;28.58;13.30;;;;;;;;;;5062362;28;20024;-69
2023/08/20 00:04:22;;;;;;;33.95;15.10;;;;;;;;;;5054006;28;20505;-67
2023/08/20 00:06:47;;;;;;;31.00;13.88;;;;;;;;;;5059800;28;20060;-66
2023/08/20 00:09:12;;;;;;;40.47;14.52;;;;;;;;;;5060870;28;20480;-66
2023/08/20 00:11:38;;;;;;;36.55;13.75;;;;;;;;;;5070601;28;20036;-67
2023/08/20 00:14:03;;;;;;;36.75;14.85;;;;;;;;;;5074470;28;20020;-67
2023/08/20 00:16:29;;;;;;;36.20;16.17;;;;;;;;;;5066706;28;20028;-66
2023/08/20 00:18:54;;;;;;;38.60;14.70;;;;;;;;;;5062203;28;20025;-67
2023/08/20 00:21:20;;;;;;;34.80;14.32;;;;;;;;;;5068143;28;20079;-67
2023/08/20 00:23:45;;;;;;;31.25;12.77;;;;;;;;;;5068174;28;20051;-67
2023/08/20 00:26:11;;;;;;;20.50;9.43;;;;;;;;;;5063847;28;20036;-67
2023/08/20 00:28:38;;;;;;;21.13;9.77;;;;;;;;;;5060247;28;20021;-69
2023/08/20 00:31:03;;;;;;;21.80;10.07;;;;;;;;;;5065421;28;20388;-69
2023/08/20 00:33:29;;;;;;;25.95;11.60;;;;;;;;;;5070255;28;20033;-69
2023/08/20 00:35:54;;;;;;;33.38;13.95;;;;;;;;;;5059772;28;20112;-67
2023/08/20 00:38:19;;;;;;;29.63;11.88;;;;;;;;;;5060225;28;20032;-69
2023/08/20 00:40:44;;;;;;;30.70;13.00;;;;;;;;;;5064411;28;20107;-69
2023/08/20 00:43:10;;;;;;;26.90;11.00;;;;;;;;;;5063693;28;20091;-69
2023/08/20 00:45:36;;;;;;;25.73;6.68;;;;;;;;;;5069784;28;20353;-69
2023/08/20 00:48:01;;;;;;;35.17;8.13;;;;;;;;;;5064770;28;20048;-69
2023/08/20 00:50:27;;;;;;;184.93;9.10;;;;;;;;;;5064512;28;20016;-68
2023/08/20 00:52:52;;;;;;;60.58;8.95;;;;;;;;;;5062552;28;20032;-69
2023/08/20 00:55:17;;;;;;;53.22;10.23;;;;;;;;;;5070995;28;20043;-69
2023/08/20 00:57:43;;;;;;;30.35;11.48;;;;;;;;;;5061289;28;20107;-68
2023/08/20 01:03:10;;;;;;;39.47;13.85;;;;;;;;;;5063857;23;20060;-72
2023/08/20 01:05:39;;;;;;;28.05;13.10;;;;;;;;;;5051744;28;20473;-72
2023/08/20 01:08:16;;;;;;;46.17;18.60;;;;;;;;;;5051277;28;20518;-73
2023/08/20 01:11:00;;;;;;;43.83;17.52;;;;;;;;;;5069695;28;20033;-70
2023/08/20 01:13:25;;;;;;;37.47;16.40;;;;;;;;;;5065136;28;20074;-70
2023/08/20 01:15:51;;;;;;;51.15;19.67;;;;;;;;;;5053659;28;20426;-70
2023/08/20 01:18:16;;;;;;;52.88;19.05;;;;;;;;;;5054924;28;20025;-70
2023/08/20 01:20:46;;;;;;;50.10;19.55;;;;;;;;;;5053427;28;20479;-70
2023/08/20 01:23:31;;;;;;;47.42;18.13;;;;;;;;;;5053720;28;20033;-70
2023/08/20 01:26:12;;;;;;;51.60;19.15;;;;;;;;;;5053281;28;20040;-70
2023/08/20 01:28:39;;;;;;;50.20;20.35;;;;;;;;;;5054578;28;20037;-70
2023/08/20 01:31:04;;;;;;;47.85;19.48;;;;;;;;;;5053663;28;20024;-70
2023/08/20 01:33:30;;;;;;;46.05;17.05;;;;;;;;;;5053540;28;20381;-70
2023/08/20 01:35:55;;;;;;;39.08;15.95;;;;;;;;;;5054457;28;20013;-70
2023/08/20 01:38:21;;;;;;;33.47;14.60;;;;;;;;;;5052199;28;20020;-70
2023/08/20 01:40:46;;;;;;;36.15;16.75;;;;;;;;;;5052153;28;20035;-70
2023/08/20 01:43:12;;;;;;;41.38;16.90;;;;;;;;;;5053086;28;20124;-70
2023/08/20 01:45:37;;;;;;;42.45;17.02;;;;;;;;;;5074298;28;20077;-70
2023/08/20 01:48:03;;;;;;;37.67;15.77;;;;;;;;;;5064140;28;20031;-70
2023/08/20 01:50:28;;;;;;;39.15;15.40;;;;;;;;;;5053928;28;20040;-70
2023/08/20 01:52:54;;;;;;;35.35;14.85;;;;;;;;;;5054096;28;20025;-70
2023/08/20 01:55:19;;;;;;;37.78;15.73;;;;;;;;;;5054006;28;20025;-70
2023/08/20 01:57:44;;;;;;;46.45;17.25;;;;;;;;;;5051987;28;20017;-70
2023/08/20 02:00:10;;;;;;;35.92;13.98;;;;;;;;;;5052681;28;20036;-70
2023/08/20 02:02:35;;;;;;;35.20;14.70;;;;;;;;;;5054360;28;20025;-70
2023/08/20 02:05:00;;;;;;;37.67;15.38;;;;;;;;;;5070697;28;20123;-70
2023/08/20 02:07:26;;;;;;;40.80;15.13;;;;;;;;;;5060381;28;20122;-70
2023/08/20 02:09:51;;;;;;;35.50;14.27;;;;;;;;;;5072687;28;20025;-70
2023/08/20 02:12:16;;;;;;;44.05;16.48;;;;;;;;;;5062151;28;20464;-69
2023/08/20 02:14:41;;;;;;;56.97;19.92;;;;;;;;;;5062724;28;20064;-70
2023/08/20 02:17:07;;;;;;;44.42;18.33;;;;;;;;;;5067797;28;20103;-65
2023/08/20 02:19:32;;;;;;;44.58;17.55;;;;;;;;;;5071441;28;20452;-66
2023/08/20 02:21:57;;;;;;;58.90;21.77;;;;;;;;;;5072555;28;20032;-66
2023/08/20 02:24:23;;;;;;;55.63;25.27;;;;;;;;;;5073678;28;20470;-66
2023/08/20 02:26:48;;;;;;;60.20;26.17;;;;;;;;;;5071869;28;20400;-66
2023/08/20 02:29:14;;;;;;;74.97;36.00;;;;;;;;;;5071981;28;20104;-66
2023/08/20 02:31:39;;;;;;;77.47;35.60;;;;;;;;;;5072082;28;20021;-67
2023/08/20 02:34:04;;;;;;;77.97;33.53;;;;;;;;;;5072231;28;20020;-67
2023/08/20 02:36:30;;;;;;;75.63;34.42;;;;;;;;;;5070702;28;20058;-67
2023/08/20 02:38:55;;;;;;;82.85;34.92;;;;;;;;;;5071386;28;20131;-67
2023/08/20 02:41:20;;;;;;;77.97;34.50;;;;;;;;;;5072572;28;20107;-67
2023/08/20 02:43:46;;;;;;;74.45;33.70;;;;;;;;;;5070830;28;20473;-68
2023/08/20 02:46:11;;;;;;;80.32;35.75;;;;;;;;;;5053836;28;20028;-67
2023/08/20 02:48:36;;;;;;;88.00;36.42;;;;;;;;;;5072383;28;20025;-67
2023/08/20 02:51:02;;;;;;;94.60;37.17;;;;;;;;;;5071606;28;20029;-67
2023/08/20 02:53:27;;;;;;;90.80;37.78;;;;;;;;;;5071480;28;20491;-67
2023/08/20 02:55:53;;;;;;;75.28;33.38;;;;;;;;;;5072912;28;20025;-67
2023/08/20 02:58:18;;;;;;;77.85;33.35;;;;;;;;;;5070660;28;20032;-67
2023/08/20 03:00:44;;;;;;;82.03;33.92;;;;;;;;;;5071885;28;20461;-67
2023/08/20 03:03:10;;;;;;;81.32;36.15;;;;;;;;;;5067378;28;20053;-68
2023/08/20 03:05:35;;;;;;;83.88;35.17;;;;;;;;;;5035829;28;20029;-67
2023/08/20 03:08:01;;;;;;;85.05;35.10;;;;;;;;;;5052118;28;20055;-67
2023/08/20 03:10:27;;;;;;;81.38;33.00;;;;;;;;;;5052304;28;20029;-67
2023/08/20 03:12:52;;;;;;;77.25;33.85;;;;;;;;;;5051319;28;20516;-68
2023/08/20 03:15:17;;;;;;;77.30;33.58;;;;;;;;;;5051945;28;20024;-67
2023/08/20 03:17:43;;;;;;;70.55;31.02;;;;;;;;;;5052338;28;20037;-68
2023/08/20 03:20:08;;;;;;;83.38;33.10;;;;;;;;;;5052691;28;20029;-67
2023/08/20 03:22:35;;;;;;;85.82;33.70;;;;;;;;;;5051717;28;20090;-67
2023/08/20 03:25:00;;;;;;;80.57;33.63;;;;;;;;;;5052552;28;20024;-70
2023/08/20 03:27:26;;;;;;;88.32;34.90;;;;;;;;;;5051647;28;20078;-67
2023/08/20 03:29:51;;;;;;;87.00;36.25;;;;;;;;;;5051756;28;20017;-67
2023/08/20 03:32:17;;;;;;;83.47;33.42;;;;;;;;;;5051814;28;20092;-67
2023/08/20 03:34:43;;;;;;;77.65;33.55;;;;;;;;;;5037584;28;20040;-67
2023/08/20 03:37:08;;;;;;;79.03;32.17;;;;;;;;;;5033686;28;20025;-67
2023/08/20 03:39:33;;;;;;;72.35;31.08;;;;;;;;;;5048417;28;20380;-67
2023/08/20 03:41:58;;;;;;;87.05;36.17;;;;;;;;;;5051648;28;20692;-67
2023/08/20 03:44:24;;;;;;;93.38;36.28;;;;;;;;;;5051463;28;20485;-68
2023/08/20 03:46:49;;;;;;;96.55;37.97;;;;;;;;;;5051179;28;20021;-68
2023/08/20 03:49:14;;;;;;;104.60;39.22;;;;;;;;;;5051767;28;20021;-67
2023/08/20 03:51:40;;;;;;;92.50;37.58;;;;;;;;;;5052590;28;20017;-69
2023/08/20 03:54:06;;;;;;;111.65;38.70;;;;;;;;;;5030492;28;20021;-68
2023/08/20 03:56:31;;;;;;;105.30;37.78;;;;;;;;;;5034290;28;20036;-68
2023/08/20 03:58:56;;;;;;;105.25;38.72;;;;;;;;;;5051557;28;20025;-68
2023/08/20 04:01:21;;;;;;;103.82;36.75;;;;;;;;;;5050794;28;20029;-67
2023/08/20 04:03:48;;;;;;;96.47;36.35;;;;;;;;;;5053883;28;20073;-67
2023/08/20 04:06:13;;;;;;;85.00;32.97;;;;;;;;;;5054552;28;20021;-67
2023/08/20 04:08:39;;;;;;;87.53;31.85;;;;;;;;;;5053573;28;20484;-67
2023/08/20 04:11:04;;;;;;;106.45;35.80;;;;;;;;;;5054764;28;20016;-67
2023/08/20 04:13:29;;;;;;;106.70;34.35;;;;;;;;;;5055110;28;20112;-67
2023/08/20 04:15:54;;;;;;;86.32;33.00;;;;;;;;;;5054530;28;20029;-67
2023/08/20 04:18:20;;;;;;;104.57;36.10;;;;;;;;;;5049939;28;20099;-67
2023/08/20 04:20:45;;;;;;;118.57;39.63;;;;;;;;;;5053765;28;20028;-67
2023/08/20 04:23:10;;;;;;;118.45;39.88;;;;;;;;;;5054633;28;20025;-67
2023/08/20 04:25:35;;;;;;;119.15;39.80;;;;;;;;;;5054700;28;20116;-68
2023/08/20 04:28:01;;;;;;;125.18;40.17;;;;;;;;;;5051259;28;20032;-68
2023/08/20 04:30:26;;;;;;;110.18;38.33;;;;;;;;;;5054597;28;20037;-68
2023/08/20 04:32:51;;;;;;;110.45;37.53;;;;;;;;;;5045850;28;20033;-68
2023/08/20 04:35:16;;;;;;;121.20;40.40;;;;;;;;;;5051254;28;20025;-67
2023/08/20 04:37:42;;;;;;;133.00;41.72;;;;;;;;;;5053910;28;20155;-69
2023/08/20 04:40:07;;;;;;;115.53;43.00;;;;;;;;;;5053952;28;20074;-68
2023/08/20 04:42:33;;;;;;;127.72;44.00;;;;;;;;;;5053000;28;20044;-67
2023/08/20 04:44:58;;;;;;;123.03;44.35;;;;;;;;;;5054410;28;20465;-67
2023/08/20 04:47:23;;;;;;;124.45;43.63;;;;;;;;;;5054052;28;20082;-68
2023/08/20 04:49:49;;;;;;;127.68;44.10;;;;;;;;;;5052256;28;20112;-69
2023/08/20 04:52:14;;;;;;;127.20;43.35;;;;;;;;;;5055092;28;20025;-68
2023/08/20 04:54:39;;;;;;;124.85;42.38;;;;;;;;;;5042345;28;20044;-69
2023/08/20 04:57:04;;;;;;;118.18;41.72;;;;;;;;;;5054450;28;20113;-67
2023/08/20 04:59:29;;;;;;;111.93;40.60;;;;;;;;;;5054258;28;20161;-67
2023/08/20 05:01:55;;;;;;;120.53;40.40;;;;;;;;;;5045192;28;20132;-67
2023/08/20 05:04:20;;;;;;;89.28;35.47;;;;;;;;;;5056207;28;20041;-68
2023/08/20 05:06:45;;;;;;;80.82;33.15;;;;;;;;;;5068048;28;20032;-67
2023/08/20 05:09:10;;;;;;;66.95;29.33;;;;;;;;;;5073481;28;20044;-67
2023/08/20 05:11:36;;;;;;;46.95;24.35;;;;;;;;;;5063181;28;20025;-67
2023/08/20 05:14:01;;;;;;;39.75;20.70;;;;;;;;;;5059154;28;20028;-68
2023/08/20 05:16:26;;;;;;;34.03;17.73;;;;;;;;;;5067449;28;20059;-68
2023/08/20 05:18:52;;;;;;;25.60;15.43;;;;;;;;;;5074004;28;20047;-67
2023/08/20 05:21:17;;;;;;;24.85;14.57;;;;;;;;;;5066025;28;20021;-68
2023/08/20 05:23:42;;;;;;;19.10;11.85;;;;;;;;;;5057712;28;20055;-70
2023/08/20 05:26:07;;;;;;;17.38;11.43;;;;;;;;;;5067504;28;20071;-70
2023/08/20 05:28:33;;;;;;;21.05;12.10;;;;;;;;;;5062636;28;20016;-70
2023/08/20 05:30:58;;;;;;;18.08;10.27;;;;;;;;;;5067124;28;20029;-70
2023/08/20 05:33:24;;;;;;;14.43;8.90;;;;;;;;;;5070462;28;20020;-70
2023/08/20 05:35:49;;;;;;;16.10;8.55;;;;;;;;;;5069197;28;20055;-70
2023/08/20 05:38:14;;;;;;;13.52;7.85;;;;;;;;;;5068451;28;20032;-70
2023/08/20 05:40:40;;;;;;;12.23;6.70;;;;;;;;;;5066625;28;20044;-70
2023/08/20 05:43:05;;;;;;;11.93;6.80;;;;;;;;;;5072332;28;20029;-70
2023/08/20 05:45:30;;;;;;;11.75;6.13;;;;;;;;;;5072917;28;20498;-70
2023/08/20 05:47:55;;;;;;;12.02;6.43;;;;;;;;;;5063693;28;20531;-70
2023/08/20 05:50:21;;;;;;;10.43;5.55;;;;;;;;;;5056516;28;20493;-70
2023/08/20 05:52:46;;;;;;;11.65;5.90;;;;;;;;;;5070345;28;20013;-70
2023/08/20 05:55:11;;;;;;;11.82;5.82;;;;;;;;;;5058119;28;20028;-70
2023/08/20 05:57:37;;;;;;;14.10;5.90;;;;;;;;;;5068091;28;20056;-70
2023/08/20 06:00:04;;;;;;;9.98;5.63;;;;;;;;;;5072183;28;20055;-70
2023/08/20 06:02:29;;;;;;;11.27;5.93;;;;;;;;;;5067424;28;20392;-70
2023/08/20 06:04:54;;;;;;;10.23;5.60;;;;;;;;;;5055725;28;20044;-70
2023/08/20 06:07:20;;;;;;;11.52;5.57;;;;;;;;;;5046260;28;20123;-71
2023/08/20 06:09:45;;;;;;;9.32;5.45;;;;;;;;;;5052508;28;20087;-70
2023/08/20 06:12:10;;;;;;;9.68;5.60;;;;;;;;;;5043202;28;20017;-71
2023/08/20 06:14:35;;;;;;;11.00;5.10;;;;;;;;;;5043205;28;20100;-70
2023/08/20 06:17:01;;;;;;;10.60;5.10;;;;;;;;;;5050302;28;20025;-71
2023/08/20 06:19:26;;;;;;;8.95;4.90;;;;;;;;;;5037012;28;20025;-71
2023/08/20 06:21:51;;;;;;;12.65;5.25;;;;;;;;;;5035725;28;20516;-70
2023/08/20 06:24:16;;;;;;;9.63;5.20;;;;;;;;;;5048683;28;20056;-71
2023/08/20 06:26:44;;;;;;;9.30;5.07;;;;;;;;;;5042315;28;20056;-71
2023/08/20 06:29:09;;;;;;;14.88;5.63;;;;;;;;;;5043237;28;20026;-70
2023/08/20 06:31:34;;;;;;;11.05;5.03;;;;;;;;;;5050853;28;20052;-71
2023/08/20 06:34:00;;;;;;;12.27;5.10;;;;;;;;;;5041663;28;20021;-71
2023/08/20 06:36:25;;;;;;;9.82;4.80;;;;;;;;;;5039527;28;20044;-71
2023/08/20 06:38:50;;;;;;;11.38;4.53;;;;;;;;;;5052847;28;20024;-71
2023/08/20 06:41:15;;;;;;;10.80;5.05;;;;;;;;;;5043428;28;20030;-71
2023/08/20 06:43:40;;;;;;;9.90;4.70;;;;;;;;;;5033254;28;20028;-71
2023/08/20 06:46:06;;;;;;;7.78;4.30;;;;;;;;;;5033282;28;20028;-71
2023/08/20 06:48:31;;;;;;;8.05;3.72;;;;;;;;;;5034894;28;20108;-71
2023/08/20 06:50:57;;;;;;;10.32;4.05;;;;;;;;;;5052858;28;20071;-71
2023/08/20 06:53:22;;;;;;;8.30;3.92;;;;;;;;;;5052202;28;20100;-71
2023/08/20 06:55:47;;;;;;;10.10;4.18;;;;;;;;;;5053292;28;20522;-71
2023/08/20 06:58:12;;;;;;;7.70;3.90;;;;;;;;;;5052050;28;20021;-72
2023/08/20 07:00:38;;;;;;;8.23;3.78;;;;;;;;;;5049821;28;20029;-72
2023/08/20 07:03:03;;;;;;;8.98;4.03;;;;;;;;;;5054231;28;20021;-72
2023/08/20 07:05:28;;;;;;;8.02;4.20;;;;;;;;;;5055346;28;20033;-73
2023/08/20 07:07:53;;;;;;;11.02;3.85;;;;;;;;;;5071494;28;20039;-73
2023/08/20 07:10:19;;;;;;;10.55;3.40;;;;;;;;;;5073170;28;20017;-73
2023/08/20 07:12:44;;;;;;;10.10;3.47;;;;;;;;;;5072893;28;20019;-73
2023/08/20 07:15:09;;;;;;;11.32;2.97;;;;;;;;;;5073129;28;20038;-73
2023/08/20 07:17:34;;;;;;;8.48;3.03;;;;;;;;;;5046588;28;20021;-71
2023/08/20 07:20:00;;;;;;;8.85;3.15;;;;;;;;;;5042721;28;20021;-72
2023/08/20 07:22:25;;;;;;;9.45;2.83;;;;;;;;;;5055971;28;20029;-73
2023/08/20 07:24:50;;;;;;;8.30;2.83;;;;;;;;;;5052967;28;20021;-73
2023/08/20 07:27:15;;;;;;;7.72;2.92;;;;;;;;;;5052937;28;20436;-73
2023/08/20 07:29:41;;;;;;;9.07;2.95;;;;;;;;;;5052922;28;20439;-73
2023/08/20 07:32:06;;;;;;;7.63;2.60;;;;;;;;;;5052658;28;20417;-73
2023/08/20 07:34:33;;;;;;;7.57;2.63;;;;;;;;;;5034702;28;20013;-69
2023/08/20 07:36:59;;;;;;;8.50;2.83;;;;;;;;;;5054277;28;20427;-68
2023/08/20 07:39:24;;;;;;;6.82;3.25;;;;;;;;;;5056080;28;20016;-68
2023/08/20 07:41:49;;;;;;;9.10;3.35;;;;;;;;;;5056419;28;20104;-69
2023/08/20 07:44:14;;;;;;;10.82;3.58;;;;;;;;;;5072532;28;20040;-68
2023/08/20 07:46:40;;;;;;;9.03;3.33;;;;;;;;;;5076461;28;20032;-69
2023/08/20 07:49:05;;;;;;;9.57;3.13;;;;;;;;;;5056264;28;20285;-68
2023/08/20 07:51:30;;;;;;;7.38;3.28;;;;;;;;;;5056393;28;20049;-69
2023/08/20 07:53:58;;;;;;;8.55;3.35;;;;;;;;;;5056519;28;20017;-69
2023/08/20 07:56:23;;;;;;;8.85;3.13;;;;;;;;;;5056248;28;20021;-69
2023/08/20 07:58:48;;;;;;;11.52;3.38;;;;;;;;;;5056097;28;20021;-70
2023/08/20 08:01:14;;;;;;;7.75;3.00;;;;;;;;;;5055619;28;20045;-69
2023/08/20 08:03:40;;;;;;;7.95;3.40;;;;;;;;;;5062340;28;20044;-70
2023/08/20 08:06:05;;;;;;;7.45;3.00;;;;;;;;;;5075955;28;20368;-69
2023/08/20 08:08:30;;;;;;;9.13;3.30;;;;;;;;;;5075944;28;20025;-68
2023/08/20 08:10:55;;;;;;;8.55;3.35;;;;;;;;;;5074803;28;20293;-69
2023/08/20 08:13:21;;;;;;;9.70;3.40;;;;;;;;;;5074963;28;20134;-67
2023/08/20 08:15:47;;;;;;;9.27;3.42;;;;;;;;;;5075791;28;20320;-66
2023/08/20 08:18:12;;;;;;;6.72;2.95;;;;;;;;;;5075358;28;20025;-68
2023/08/20 08:20:37;;;;;;;8.10;2.93;;;;;;;;;;5075645;28;20032;-68
2023/08/20 08:23:03;;;;;;;7.93;2.90;;;;;;;;;;5076279;28;20258;-68
2023/08/20 08:25:28;;;;;;;7.07;3.47;;;;;;;;;;5075901;28;20028;-68
2023/08/20 08:27:53;;;;;;;13.73;4.03;;;;;;;;;;5074722;28;20039;-68
2023/08/20 08:30:19;;;;;;;8.57;3.97;;;;;;;;;;5061742;28;20395;-67
2023/08/20 08:32:44;;;;;;;7.43;3.58;;;;;;;;;;5074550;28;20035;-68
2023/08/20 08:35:09;;;;;;;11.13;4.20;;;;;;;;;;5065165;28;20017;-69
2023/08/20 08:37:34;;;;;;;10.65;3.80;;;;;;;;;;5074673;28;20052;-69
2023/08/20 08:40:00;;;;;;;10.68;3.70;;;;;;;;;;5074456;28;20024;-69
2023/08/20 08:42:25;;;;;;;10.40;4.20;;;;;;;;;;5057386;28;20495;-69
2023/08/20 08:44:50;;;;;;;9.40;4.10;;;;;;;;;;5075291;28;20020;-69
2023/08/20 08:47:16;;;;;;;10.23;4.05;;;;;;;;;;5065911;28;20036;-69
2023/08/20 08:49:43;;;;;;;10.38;4.20;;;;;;;;;;5054292;28;20025;-69
2023/08/20 08:52:10;;;;;;;9.40;3.85;;;;;;;;;;5055898;28;20023;-69
2023/08/20 08:54:35;;;;;;;8.45;4.10;;;;;;;;;;5074958;28;20025;-69
2023/08/20 08:57:01;;;;;;;9.18;4.10;;;;;;;;;;5074088;28;20020;-70
2023/08/20 08:59:26;;;;;;;11.05;3.75;;;;;;;;;;5071199;28;20019;-71
2023/08/20 09:01:51;;;;;;;9.15;4.20;;;;;;;;;;5072390;28;20056;-69
2023/08/20 09:04:16;;;;;;;11.15;3.70;;;;;;;;;;5059783;28;20036;-70
2023/08/20 09:06:52;;;;;;;9.10;3.10;;;;;;;;;;5054927;28;20025;-69
2023/08/20 09:09:18;;;;;;;7.82;3.38;;;;;;;;;;5054728;28;20256;-69
2023/08/20 09:11:43;;;;;;;9.30;3.60;;;;;;;;;;5055009;28;20354;-69
2023/08/20 09:14:20;;;;;;;7.88;4.15;;;;;;;;;;5054944;28;20031;-69
2023/08/20 09:16:45;;;;;;;9.43;3.42;;;;;;;;;;5055013;28;20380;-70
2023/08/20 09:19:11;;;;;;;8.65;3.80;;;;;;;;;;5050906;28;20017;-69
2023/08/20 09:21:36;;;;;;;10.73;4.15;;;;;;;;;;5052423;28;20021;-69
2023/08/20 09:24:02;;;;;;;9.25;3.80;;;;;;;;;;5047082;28;20123;-71
2023/08/20 09:26:27;;;;;;;9.40;3.83;;;;;;;;;;5051061;28;20052;-70
2023/08/20 09:28:54;;;;;;;7.13;3.65;;;;;;;;;;5051145;28;20013;-69
2023/08/20 09:31:20;;;;;;;8.95;3.35;;;;;;;;;;5054166;28;20051;-69
2023/08/20 09:33:52;;;;;;;7.85;3.08;;;;;;;;;;5054184;28;20044;-69
2023/08/20 09:36:17;;;;;;;7.78;3.20;;;;;;;;;;5034637;28;20075;-69
2023/08/20 09:38:43;;;;;;;9.02;3.17;;;;;;;;;;5053226;28;20424;-69
2023/08/20 09:41:08;;;;;;;8.20;3.17;;;;;;;;;;5054268;28;20032;-70
2023/08/20 09:43:35;;;;;;;7.03;3.00;;;;;;;;;;5053698;28;20059;-70
2023/08/20 09:46:02;;;;;;;8.00;3.65;;;;;;;;;;5044770;28;20044;-70
2023/08/20 09:48:28;;;;;;;7.28;3.50;;;;;;;;;;5042005;28;20525;-69
2023/08/20 09:50:56;;;;;;;10.73;3.10;;;;;;;;;;5041026;28;20021;-67
2023/08/20 09:53:48;;;;;;;7.85;3.58;;;;;;;;;;5044967;28;20018;-68
2023/08/20 09:56:21;;;;;;;8.27;3.47;;;;;;;;;;5040980;28;20067;-67
2023/08/20 09:58:48;;;;;;;9.10;3.20;;;;;;;;;;5042564;28;20097;-68
2023/08/20 10:01:14;;;;;;;9.10;4.00;;;;;;;;;;5043461;28;20031;-68
2023/08/20 10:03:40;;;;;;;9.80;3.90;;;;;;;;;;5049607;28;20057;-68
2023/08/20 10:06:06;;;;;;;7.07;3.38;;;;;;;;;;5061908;28;20383;-68
2023/08/20 10:08:31;;;;;;;10.48;3.75;;;;;;;;;;5061498;28;20029;-68
2023/08/20 10:10:56;;;;;;;7.65;3.67;;;;;;;;;;5064238;28;20518;-67
2023/08/20 10:13:22;;;;;;;8.35;3.85;;;;;;;;;;5070673;28;20016;-68
2023/08/20 10:15:47;;;;;;;11.80;4.03;;;;;;;;;;5067525;28;20017;-67
2023/08/20 10:18:13;;;;;;;7.20;3.22;;;;;;;;;;5065595;28;20016;-68
2023/08/20 10:20:39;;;;;;;9.02;3.00;;;;;;;;;;5068725;28;20039;-68
2023/08/20 10:23:04;;;;;;;9.48;3.10;;;;;;;;;;5058322;28;20021;-69
2023/08/20 10:25:30;;;;;;;9.63;3.00;;;;;;;;;;5069056;28;20016;-67
2023/08/20 10:28:10;;;;;;;7.18;2.83;;;;;;;;;;5071160;28;20107;-71
2023/08/20 10:30:36;;;;;;;;;;;;;;;;;;5063399;28;20108;-71
2023/08/20 10:33:03;;;;;;;8.27;2.53;;;;;;;;;;5065411;28;20357;-72
2023/08/20 10:35:29;;;;;;;5.97;2.88;;;;;;;;;;5071374;28;20031;-72
2023/08/20 10:38:13;;;;;;;6.70;2.40;;;;;;;;;;5073163;28;20017;-72
2023/08/20 10:40:49;;;;;;;8.23;2.30;;;;;;;;;;5072883;28;20683;-72
2023/08/20 10:43:53;;;;;;;5.72;2.35;;;;;;;;;;5073138;28;20078;-72
2023/08/20 10:46:19;;;;;;;8.85;2.45;;;;;;;;;;5006292;28;20030;-73
2023/08/20 10:48:50;;;;;;;5.47;2.40;;;;;;;;;;5011287;28;20036;-73
2023/08/20 10:51:16;;;;;;;6.72;2.30;;;;;;;;;;5007900;28;20104;-72
2023/08/20 10:53:42;;;;;;;8.68;2.72;;;;;;;;;;5006536;28;20496;-73
2023/08/20 10:56:08;;;;;;;6.78;2.53;;;;;;;;;;5011378;28;20096;-72
2023/08/20 10:58:33;;;;;;;5.68;2.60;;;;;;;;;;5011197;28;20072;-73
2023/08/20 11:01:18;;;;;;;8.23;2.80;;;;;;;;;;5010351;28;20438;-73
2023/08/20 11:03:48;;;;;;;5.22;2.70;;;;;;;;;;5010623;28;20045;-73
2023/08/20 11:06:14;;;;;;;6.20;2.50;;;;;;;;;;5011177;28;20108;-73
2023/08/20 11:08:40;;;;;;;6.40;2.40;;;;;;;;;;5011063;28;20113;-72
2023/08/20 11:11:05;;;;;;;10.15;2.50;;;;;;;;;;5010317;28;20034;-73
2023/08/20 11:13:34;;;;;;;6.50;2.40;;;;;;;;;;5015149;28;20382;-73
2023/08/20 11:16:00;;;;;;;7.32;2.80;;;;;;;;;;5019250;28;20101;-72
2023/08/20 11:18:25;;;;;;;9.05;2.67;;;;;;;;;;5077117;28;20507;-73
2023/08/20 11:20:51;;;;;;;6.20;2.60;;;;;;;;;;5064821;28;20024;-72
2023/08/20 11:23:16;;;;;;;7.75;2.30;;;;;;;;;;5065429;28;20029;-72
2023/08/20 11:25:42;;;;;;;5.68;2.42;;;;;;;;;;5062682;28;20025;-73
2023/08/20 11:28:07;;;;;;;5.45;2.10;;;;;;;;;;5062941;28;20032;-73
2023/08/20 11:30:33;;;;;;;7.05;2.42;;;;;;;;;;5063424;28;20422;-73
2023/08/20 11:32:58;;;;;;;7.38;2.47;;;;;;;;;;5066942;28;20651;-73
2023/08/20 11:35:24;;;;;;;5.80;2.10;;;;;;;;;;5070768;28;20009;-73
2023/08/20 11:37:49;;;;;;;6.35;2.22;;;;;;;;;;5062696;28;20036;-73
2023/08/20 11:40:14;;;;;;;5.90;2.20;;;;;;;;;;5056496;28;20491;-72
2023/08/20 11:42:39;;;;;;;8.80;2.40;;;;;;;;;;5076221;28;20021;-72
2023/08/20 11:45:06;;;;;;;7.43;2.35;;;;;;;;;;5076561;28;20074;-72
2023/08/20 11:47:38;;;;;;;6.30;2.67;;;;;;;;;;5075766;28;20411;-72
2023/08/20 11:50:04;;;;;;;9.45;2.50;;;;;;;;;;5066127;28;20096;-72
2023/08/20 11:52:30;;;;;;;6.00;2.42;;;;;;;;;;5059030;28;20047;-72
2023/08/20 11:54:56;;;;;;;7.97;2.28;;;;;;;;;;5076261;28;20017;-73
2023/08/20 11:57:21;;;;;;;6.28;2.17;;;;;;;;;;5076067;28;20473;-73
2023/08/20 11:59:46;;;;;;;6.65;1.95;;;;;;;;;;5075473;28;20028;-72
2023/08/20 12:02:12;;;;;;;6.28;2.38;;;;;;;;;;5071402;28;20907;-72
2023/08/20 12:04:37;;;;;;;7.78;2.42;;;;;;;;;;5055809;28;20405;-73
2023/08/20 12:07:09;;;;;;;5.03;1.98;;;;;;;;;;5065195;28;20024;-72
2023/08/20 12:09:35;;;;;;;5.15;2.05;;;;;;;;;;5075698;28;20466;-72
2023/08/20 12:12:01;;;;;;;5.32;1.80;;;;;;;;;;5074069;28;20098;-73
2023/08/20 12:14:26;;;;;;;6.10;2.20;;;;;;;;;;5075713;28;20012;-73
2023/08/20 12:16:53;;;;;;;6.80;2.35;;;;;;;;;;5075415;28;20027;-72
2023/08/20 12:19:18;;;;;;;5.38;2.08;;;;;;;;;;5075409;28;20023;-73
2023/08/20 12:21:43;;;;;;;7.35;2.20;;;;;;;;;;5075561;28;20032;-73
2023/08/20 12:24:09;;;;;;;5.90;2.00;;;;;;;;;;5075421;28;20454;-72
2023/08/20 12:26:35;;;;;;;5.22;2.10;;;;;;;;;;5075007;28;20099;-72
2023/08/20 12:29:00;;;;;;;5.40;1.92;;;;;;;;;;5070614;28;20100;-71
2023/08/20 12:31:25;;;;;;;7.18;2.10;;;;;;;;;;5075499;28;20112;-72
2023/08/20 12:33:51;;;;;;;10.85;2.05;;;;;;;;;;5065213;28;20059;-72
2023/08/20 12:36:16;;;;;;;6.10;2.15;;;;;;;;;;5055602;28;20013;-72
2023/08/20 12:38:41;;;;;;;4.35;1.75;;;;;;;;;;5061170;28;20104;-72
2023/08/20 12:41:07;;;;;;;7.72;2.40;;;;;;;;;;5061980;28;20147;-72
2023/08/20 12:43:32;;;;;;;6.82;1.92;;;;;;;;;;5066369;28;20024;-72
2023/08/20 12:45:57;;;;;;;8.30;2.10;;;;;;;;;;5066131;28;20305;-72
2023/08/20 12:48:22;;;;;;;7.55;2.03;;;;;;;;;;5065007;28;20162;-73
2023/08/20 12:50:48;;;;;;;4.40;1.80;;;;;;;;;;5073494;28;20550;-73
2023/08/20 12:53:13;;;;;;;5.80;1.67;;;;;;;;;;5070607;28;20384;-73
2023/08/20 12:55:38;;;;;;;6.78;2.03;;;;;;;;;;5064297;28;20031;-71
2023/08/20 12:58:03;;;;;;;6.30;1.98;;;;;;;;;;5067424;28;20020;-72
2023/08/20 13:00:29;;;;;;;5.43;1.90;;;;;;;;;;5055257;28;20035;-71
2023/08/20 13:02:54;;;;;;;7.50;1.92;;;;;;;;;;5071836;28;20020;-72
2023/08/20 13:05:20;;;;;;;8.73;2.30;;;;;;;;;;5036087;28;20030;-73
2023/08/20 13:07:46;;;;;;;6.07;2.10;;;;;;;;;;5043605;28;20029;-73
2023/08/20 13:10:12;;;;;;;7.70;2.13;;;;;;;;;;5041017;28;20021;-72
2023/08/20 13:12:39;;;;;;;5.38;2.10;;;;;;;;;;5039438;28;20413;-73
2023/08/20 13:15:05;;;;;;;6.68;2.10;;;;;;;;;;5041401;28;20025;-72
2023/08/20 13:17:30;;;;;;;6.88;2.08;;;;;;;;;;5054670;28;20021;-73
2023/08/20 13:19:55;;;;;;;6.55;1.90;;;;;;;;;;5054595;28;20534;-73
2023/08/20 13:22:21;;;;;;;5.00;1.80;;;;;;;;;;5053421;28;20037;-73
2023/08/20 13:24:46;;;;;;;6.28;2.47;;;;;;;;;;5046100;28;20055;-72
2023/08/20 13:27:12;;;;;;;8.38;2.30;;;;;;;;;;5044286;28;20020;-72
2023/08/20 13:29:37;;;;;;;6.43;2.10;;;;;;;;;;5044516;28;20040;-72
2023/08/20 13:32:02;;;;;;;5.82;2.10;;;;;;;;;;5042807;28;20036;-72
2023/08/20 13:34:27;;;;;;;4.85;1.80;;;;;;;;;;5049158;28;20017;-73
2023/08/20 13:36:53;;;;;;;5.00;1.70;;;;;;;;;;5053225;28;20017;-72
2023/08/20 13:39:18;;;;;;;8.13;1.88;;;;;;;;;;5053992;28;20043;-72
2023/08/20 13:41:44;;;;;;;5.45;1.83;;;;;;;;;;5054231;28;20063;-73
2023/08/20 13:44:09;;;;;;;4.95;1.55;;;;;;;;;;5052463;28;20086;-73
2023/08/20 13:46:34;;;;;;;4.90;1.65;;;;;;;;;;5054266;28;20021;-73
2023/08/20 13:48:59;;;;;;;5.10;1.83;;;;;;;;;;5051090;28;20431;-73
2023/08/20 13:51:25;;;;;;;4.90;1.98;;;;;;;;;;5053149;28;20028;-72
2023/08/20 13:53:50;;;;;;;9.10;2.00;;;;;;;;;;5053650;28;20021;-73
2023/08/20 13:56:15;;;;;;;9.52;2.20;;;;;;;;;;5054217;28;20021;-72
2023/08/20 13:58:41;;;;;;;6.50;1.90;;;;;;;;;;5054207;28;20017;-72
2023/08/20 14:01:06;;;;;;;9.13;2.00;;;;;;;;;;5053752;28;20259;-72
2023/08/20 14:03:31;;;;;;;6.28;2.10;;;;;;;;;;5058687;28;20289;-72
2023/08/20 14:05:57;;;;;;;5.30;1.88;;;;;;;;;;5073204;28;20549;-71
2023/08/20 14:08:22;;;;;;;8.10;2.08;;;;;;;;;;5072810;28;20415;-72
2023/08/20 14:10:47;;;;;;;6.10;1.92;;;;;;;;;;5072301;28;20384;-72
2023/08/20 14:13:12;;;;;;;5.00;1.80;;;;;;;;;;5064816;28;20063;-72
2023/08/20 14:15:38;;;;;;;7.18;1.58;;;;;;;;;;5072557;28;20024;-72
2023/08/20 14:18:03;;;;;;;5.95;1.73;;;;;;;;;;5073436;28;20103;-72
2023/08/20 14:20:28;;;;;;;4.97;1.50;;;;;;;;;;5073816;28;20468;-73
2023/08/20 14:22:54;;;;;;;5.40;1.60;;;;;;;;;;5073270;28;20433;-72
2023/08/20 14:25:19;;;;;;;5.40;1.67;;;;;;;;;;5072337;28;20031;-71
2023/08/20 14:27:44;;;;;;;4.18;1.77;;;;;;;;;;5073222;28;20021;-72